sensor_id;sensor_type;location;lat;lon;timestamp;pressure;altitude;pressure_sealevel;temperature;humidity
71057;BME280;58380;48.312;9.246;2024-01-15T07:24:39;92329.06;;;-3.78;91.00
71057;BME280;58380;48.312;9.246;2024-01-15T07:27:41;92337.56;;;-3.71;89.89
71057;BME280;58380;48.312;9.246;2024-01-15T07:30:44;92328.06;;;-3.77;90.07
71057;BME280;58380;48.312;9.246;2024-01-15T07:33:45;92315.34;;;-3.72;91.70
71057;BME280;58380;48.312;9.246;2024-01-15T07:36:46;92325.09;;;-3.74;88.68
71057;BME280;58380;48.312;9.246;2024-01-15T07:39:47;92330.63;;;-3.77;88.92
71057;BME280;58380;48.312;9.246;2024-01-15T07:42:47;92335.59;;;-3.69;88.98
71057;BME280;58380;48.312;9.246;2024-01-15T07:45:50;92334.00;;;-3.70;88.44
71057;BME280;58380;48.312;9.246;2024-01-15T07:48:54;92336.97;;;-3.66;88.22
71057;BME280;58380;48.312;9.246;2024-01-15T07:51:57;92316.53;;;-3.61;88.28
71057;BME280;58380;48.312;9.246;2024-01-15T07:54:58;92306.03;;;-3.66;90.43
71057;BME280;58380;48.312;9.246;2024-01-15T07:58:03;92312.56;;;-3.64;89.89
71057;BME280;58380;48.312;9.246;2024-01-15T08:01:04;92308.97;;;-3.56;88.42
71057;BME280;58380;48.312;9.246;2024-01-15T08:04:06;92304.59;;;-3.56;84.52
71057;BME280;58380;48.312;9.246;2024-01-15T08:07:09;92322.00;;;-3.44;84.58
71057;BME280;58380;48.312;9.246;2024-01-15T08:10:09;92312.84;;;-3.40;83.21
71057;BME280;58380;48.312;9.246;2024-01-15T08:13:10;92319.56;;;-3.33;84.08
71057;BME280;58380;48.312;9.246;2024-01-15T08:16:10;92330.47;;;-3.24;83.40
71057;BME280;58380;48.312;9.246;2024-01-15T08:19:10;92320.09;;;-3.17;82.02
71057;BME280;58380;48.312;9.246;2024-01-15T08:22:11;92290.38;;;-3.27;81.15
71057;BME280;58380;48.312;9.246;2024-01-15T08:25:11;92304.38;;;-3.09;77.99
71057;BME280;58380;48.312;9.246;2024-01-15T08:28:13;92279.63;;;-3.17;79.66
71057;BME280;58380;48.312;9.246;2024-01-15T08:31:13;92302.56;;;-3.02;79.28
71057;BME280;58380;48.312;9.246;2024-01-15T08:34:13;92286.84;;;-3.00;79.00
71057;BME280;58380;48.312;9.246;2024-01-15T08:37:14;92317.50;;;-2.79;77.44
71057;BME280;58380;48.312;9.246;2024-01-15T08:40:16;92307.38;;;-2.80;76.43
71057;BME280;58380;48.312;9.246;2024-01-15T08:43:16;92319.47;;;-2.74;77.48
71057;BME280;58380;48.312;9.246;2024-01-15T08:46:17;92312.66;;;-2.69;76.31
71057;BME280;58380;48.312;9.246;2024-01-15T08:49:17;92310.25;;;-2.64;76.63
71057;BME280;58380;48.312;9.246;2024-01-15T08:52:17;92323.69;;;-2.55;76.27
71057;BME280;58380;48.312;9.246;2024-01-15T08:55:18;92307.47;;;-2.62;75.36
71057;BME280;58380;48.312;9.246;2024-01-15T08:58:19;92324.66;;;-2.49;74.21
71057;BME280;58380;48.312;9.246;2024-01-15T09:01:19;92307.34;;;-2.49;76.07
71057;BME280;58380;48.312;9.246;2024-01-15T09:04:20;92276.41;;;-2.55;73.67
71057;BME280;58380;48.312;9.246;2024-01-15T09:07:20;92296.91;;;-2.35;73.79
71057;BME280;58380;48.312;9.246;2024-01-15T09:10:20;92306.19;;;-2.28;74.03
71057;BME280;58380;48.312;9.246;2024-01-15T09:13:21;92318.28;;;-2.22;74.66
71057;BME280;58380;48.312;9.246;2024-01-15T09:16:21;92309.88;;;-2.17;73.86
71057;BME280;58380;48.312;9.246;2024-01-15T09:19:22;92300.84;;;-2.08;74.97
71057;BME280;58380;48.312;9.246;2024-01-15T09:22:22;92283.97;;;-2.10;74.01
71057;BME280;58380;48.312;9.246;2024-01-15T09:25:23;92282.75;;;-2.08;73.94
71057;BME280;58380;48.312;9.246;2024-01-15T09:28:23;92277.81;;;-2.09;72.97
71057;BME280;58380;48.312;9.246;2024-01-15T09:31:23;92291.28;;;-2.07;72.81
71057;BME280;58380;48.312;9.246;2024-01-15T09:34:24;92294.59;;;-2.00;73.50
71057;BME280;58380;48.312;9.246;2024-01-15T09:37:24;92290.63;;;-2.03;73.66
71057;BME280;58380;48.312;9.246;2024-01-15T09:40:28;92300.78;;;-2.01;73.47
71057;BME280;58380;48.312;9.246;2024-01-15T09:43:33;92274.41;;;-2.10;72.93
71057;BME280;58380;48.312;9.246;2024-01-15T09:46:35;92301.28;;;-1.92;71.12
71057;BME280;58380;48.312;9.246;2024-01-15T09:49:35;92264.78;;;-2.03;72.04
71057;BME280;58380;48.312;9.246;2024-01-15T09:52:36;92267.53;;;-1.98;72.80
71057;BME280;58380;48.312;9.246;2024-01-15T09:55:37;92248.78;;;-1.93;72.90
71057;BME280;58380;48.312;9.246;2024-01-15T09:58:40;92263.59;;;-1.82;72.43
71057;BME280;58380;48.312;9.246;2024-01-15T10:01:43;92262.13;;;-1.78;70.25
71057;BME280;58380;48.312;9.246;2024-01-15T10:04:45;92257.78;;;-1.77;70.96
71057;BME280;58380;48.312;9.246;2024-01-15T10:07:46;92270.88;;;-1.60;72.03
71057;BME280;58380;48.312;9.246;2024-01-15T10:10:50;92245.38;;;-1.75;71.13
71057;BME280;58380;48.312;9.246;2024-01-15T10:13:50;92261.56;;;-1.61;71.53
71057;BME280;58380;48.312;9.246;2024-01-15T10:16:53;92252.38;;;-1.57;70.05
71057;BME280;58380;48.312;9.246;2024-01-15T10:19:53;92262.19;;;-1.47;70.62
71057;BME280;58380;48.312;9.246;2024-01-15T10:22:55;92242.56;;;-1.55;70.21
71057;BME280;58380;48.312;9.246;2024-01-15T10:25:56;92236.59;;;-1.56;70.14
71057;BME280;58380;48.312;9.246;2024-01-15T10:29:01;92218.81;;;-1.64;70.28
71057;BME280;58380;48.312;9.246;2024-01-15T10:32:02;92231.22;;;-1.54;70.58
71057;BME280;58380;48.312;9.246;2024-01-15T10:35:07;92225.47;;;-1.56;71.05
71057;BME280;58380;48.312;9.246;2024-01-15T10:38:08;92219.91;;;-1.41;71.25
71057;BME280;58380;48.312;9.246;2024-01-15T10:41:09;92220.69;;;-1.41;71.12
71057;BME280;58380;48.312;9.246;2024-01-15T10:44:10;92212.09;;;-1.53;71.21
71057;BME280;58380;48.312;9.246;2024-01-15T10:47:10;92205.03;;;-1.46;71.74
71057;BME280;58380;48.312;9.246;2024-01-15T10:50:12;92216.47;;;-1.23;71.01
71057;BME280;58380;48.312;9.246;2024-01-15T10:53:15;92186.91;;;-1.46;71.31
71057;BME280;58380;48.312;9.246;2024-01-15T10:56:17;92199.91;;;-1.34;71.69
71057;BME280;58380;48.312;9.246;2024-01-15T10:59:20;92223.53;;;-1.31;71.81
71057;BME280;58380;48.312;9.246;2024-01-15T11:02:22;92199.53;;;-1.38;70.78
71057;BME280;58380;48.312;9.246;2024-01-15T11:05:25;92202.44;;;-1.46;71.01
71057;BME280;58380;48.312;9.246;2024-01-15T11:08:25;92230.72;;;-1.33;72.19
71057;BME280;58380;48.312;9.246;2024-01-15T11:11:26;92226.13;;;-1.31;71.50
71057;BME280;58380;48.312;9.246;2024-01-15T11:18:00;92224.81;;;-1.21;71.56
71057;BME280;58380;48.312;9.246;2024-01-15T11:24:39;92208.50;;;-1.22;72.58
71057;BME280;58380;48.312;9.246;2024-01-15T11:27:41;92220.22;;;-1.19;71.80
71057;BME280;58380;48.312;9.246;2024-01-15T11:30:42;92218.88;;;-1.22;72.93
71057;BME280;58380;48.312;9.246;2024-01-15T11:33:49;92220.22;;;-1.19;72.50
71057;BME280;58380;48.312;9.246;2024-01-15T11:39:55;92200.69;;;-1.34;72.07
71057;BME280;58380;48.312;9.246;2024-01-15T11:43:00;92218.38;;;-1.31;72.66
71057;BME280;58380;48.312;9.246;2024-01-15T11:46:01;92226.97;;;-1.18;73.52
71057;BME280;58380;48.312;9.246;2024-01-15T11:49:03;92213.75;;;-1.28;72.12
71057;BME280;58380;48.312;9.246;2024-01-15T11:52:06;92225.28;;;-1.24;72.83
71057;BME280;58380;48.312;9.246;2024-01-15T11:55:27;92215.56;;;-1.29;73.22
71057;BME280;58380;48.312;9.246;2024-01-15T11:58:30;92206.91;;;-1.35;73.50
71057;BME280;58380;48.312;9.246;2024-01-15T12:01:31;92215.00;;;-1.31;74.21
71057;BME280;58380;48.312;9.246;2024-01-15T12:04:32;92210.25;;;-1.34;74.24
71057;BME280;58380;48.312;9.246;2024-01-15T12:07:32;92216.34;;;-1.28;73.90
71057;BME280;58380;48.312;9.246;2024-01-15T12:10:32;92209.59;;;-1.29;74.46
71057;BME280;58380;48.312;9.246;2024-01-15T12:13:33;92209.56;;;-1.41;75.06
71057;BME280;58380;48.312;9.246;2024-01-15T12:16:33;92197.28;;;-1.46;75.52
71057;BME280;58380;48.312;9.246;2024-01-15T12:19:34;92204.91;;;-1.51;77.40
71057;BME280;58380;48.312;9.246;2024-01-15T12:22:34;92224.50;;;-1.43;79.01
71057;BME280;58380;48.312;9.246;2024-01-15T12:25:35;92188.09;;;-1.60;79.14
71057;BME280;58380;48.312;9.246;2024-01-15T12:28:36;92207.56;;;-1.58;79.69
71057;BME280;58380;48.312;9.246;2024-01-15T12:31:37;92207.03;;;-1.78;81.45
71057;BME280;58380;48.312;9.246;2024-01-15T12:34:37;92201.41;;;-1.75;82.66
71057;BME280;58380;48.312;9.246;2024-01-15T12:37:42;92212.00;;;-1.77;82.02
71057;BME280;58380;48.312;9.246;2024-01-15T12:40:43;92207.59;;;-1.76;82.83
71057;BME280;58380;48.312;9.246;2024-01-15T12:43:46;92174.06;;;-1.83;83.66
71057;BME280;58380;48.312;9.246;2024-01-15T12:46:47;92204.00;;;-1.75;83.49
71057;BME280;58380;48.312;9.246;2024-01-15T12:49:48;92201.22;;;-1.74;83.06
71057;BME280;58380;48.312;9.246;2024-01-15T12:52:53;92197.47;;;-1.78;83.48
71057;BME280;58380;48.312;9.246;2024-01-15T12:55:54;92158.91;;;-1.98;83.07
71057;BME280;58380;48.312;9.246;2024-01-15T12:58:54;92205.03;;;-1.76;83.38
71057;BME280;58380;48.312;9.246;2024-01-15T13:01:55;92183.28;;;-1.87;85.49
71057;BME280;58380;48.312;9.246;2024-01-15T13:04:55;92194.47;;;-1.75;86.15
71057;BME280;58380;48.312;9.246;2024-01-15T13:07:56;92177.00;;;-1.79;86.03
71057;BME280;58380;48.312;9.246;2024-01-15T13:10:56;92193.00;;;-1.70;87.67
71057;BME280;58380;48.312;9.246;2024-01-15T13:13:57;92144.00;;;-2.14;87.82
71057;BME280;58380;48.312;9.246;2024-01-15T13:16:58;92180.59;;;-1.80;90.36
71057;BME280;58380;48.312;9.246;2024-01-15T13:19:59;92184.00;;;-1.80;89.37
71057;BME280;58380;48.312;9.246;2024-01-15T13:23:00;92195.53;;;-1.82;89.74
71057;BME280;58380;48.312;9.246;2024-01-15T13:26:00;92184.50;;;-1.89;89.65
71057;BME280;58380;48.312;9.246;2024-01-15T13:29:01;92189.56;;;-1.83;91.60
71057;BME280;58380;48.312;9.246;2024-01-15T13:32:01;92194.75;;;-1.83;93.94
71057;BME280;58380;48.312;9.246;2024-01-15T13:35:03;92212.00;;;-1.95;96.43
71057;BME280;58380;48.312;9.246;2024-01-15T13:38:05;92185.88;;;-2.24;98.85
71057;BME280;58380;48.312;9.246;2024-01-15T13:41:06;92189.09;;;-2.28;99.95
71057;BME280;58380;48.312;9.246;2024-01-15T13:44:06;92206.75;;;-2.25;100.00
71057;BME280;58380;48.312;9.246;2024-01-15T13:47:07;92194.69;;;-2.31;100.00
71057;BME280;58380;48.312;9.246;2024-01-15T13:50:07;92210.56;;;-2.28;100.00
71057;BME280;58380;48.312;9.246;2024-01-15T13:53:08;92193.78;;;-2.37;100.00
71057;BME280;58380;48.312;9.246;2024-01-15T13:56:09;92207.63;;;-2.31;100.00
71057;BME280;58380;48.312;9.246;2024-01-15T13:59:10;92161.59;;;-2.59;100.00
71057;BME280;58380;48.312;9.246;2024-01-15T14:02:11;92201.88;;;-2.33;100.00
71057;BME280;58380;48.312;9.246;2024-01-15T14:05:12;92216.09;;;-2.24;100.00
71057;BME280;58380;48.312;9.246;2024-01-15T14:08:12;92206.25;;;-2.34;100.00
71057;BME280;58380;48.312;9.246;2024-01-15T14:11:13;92224.19;;;-2.21;100.00
71057;BME280;58380;48.312;9.246;2024-01-15T14:14:14;92223.84;;;-2.24;100.00
71057;BME280;58380;48.312;9.246;2024-01-15T14:17:14;92230.16;;;-2.20;100.00
71057;BME280;58380;48.312;9.246;2024-01-15T14:20:15;92230.59;;;-2.23;100.00
71057;BME280;58380;48.312;9.246;2024-01-15T14:23:15;92231.19;;;-2.21;100.00
71057;BME280;58380;48.312;9.246;2024-01-15T14:26:15;92246.69;;;-2.21;100.00
71057;BME280;58380;48.312;9.246;2024-01-15T14:29:16;92237.91;;;-2.39;100.00
71057;BME280;58380;48.312;9.246;2024-01-15T14:32:18;92231.66;;;-2.49;100.00
71057;BME280;58380;48.312;9.246;2024-01-15T14:35:19;92245.94;;;-2.47;100.00
71057;BME280;58380;48.312;9.246;2024-01-15T14:38:19;92251.44;;;-2.43;100.00
71057;BME280;58380;48.312;9.246;2024-01-15T14:41:19;92249.72;;;-2.49;100.00
71057;BME280;58380;48.312;9.246;2024-01-15T14:44:20;92254.16;;;-2.56;100.00
71057;BME280;58380;48.312;9.246;2024-01-15T14:47:21;92246.16;;;-2.73;100.00
71057;BME280;58380;48.312;9.246;2024-01-15T14:50:24;92276.19;;;-2.54;100.00
71057;BME280;58380;48.312;9.246;2024-01-15T14:53:25;92263.94;;;-2.65;100.00
71057;BME280;58380;48.312;9.246;2024-01-15T14:56:25;92268.34;;;-2.66;100.00
71057;BME280;58380;48.312;9.246;2024-01-15T14:59:25;92274.56;;;-2.48;100.00
71057;BME280;58380;48.312;9.246;2024-01-15T15:02:28;92274.59;;;-2.55;100.00
71057;BME280;58380;48.312;9.246;2024-01-15T15:05:29;92277.19;;;-2.55;100.00
71057;BME280;58380;48.312;9.246;2024-01-15T15:08:29;92278.00;;;-2.54;100.00
71057;BME280;58380;48.312;9.246;2024-01-15T15:11:30;92291.44;;;-2.46;100.00
71057;BME280;58380;48.312;9.246;2024-01-15T15:14:31;92298.44;;;-2.53;100.00
71057;BME280;58380;48.312;9.246;2024-01-15T15:17:37;92293.16;;;-2.65;100.00
71057;BME280;58380;48.312;9.246;2024-01-15T15:20:38;92288.69;;;-2.76;100.00
71057;BME280;58380;48.312;9.246;2024-01-15T15:23:38;92317.03;;;-2.69;100.00
71057;BME280;58380;48.312;9.246;2024-01-15T15:26:39;92315.69;;;-2.72;100.00
71057;BME280;58380;48.312;9.246;2024-01-15T15:29:39;92339.13;;;-2.73;100.00
71057;BME280;58380;48.312;9.246;2024-01-15T15:32:39;92328.44;;;-2.77;100.00
71057;BME280;58380;48.312;9.246;2024-01-15T15:35:40;92322.16;;;-2.94;100.00
71057;BME280;58380;48.312;9.246;2024-01-15T15:38:40;92339.25;;;-3.00;100.00
71057;BME280;58380;48.312;9.246;2024-01-15T15:41:41;92350.97;;;-2.97;100.00
71057;BME280;58380;48.312;9.246;2024-01-15T15:44:42;92344.06;;;-3.04;100.00
71057;BME280;58380;48.312;9.246;2024-01-15T15:47:46;92356.53;;;-3.00;100.00
71057;BME280;58380;48.312;9.246;2024-01-15T15:50:46;92357.94;;;-3.05;100.00
71057;BME280;58380;48.312;9.246;2024-01-15T15:53:47;92360.19;;;-3.15;100.00
71057;BME280;58380;48.312;9.246;2024-01-15T15:56:47;92378.13;;;-3.27;100.00
71057;BME280;58380;48.312;9.246;2024-01-15T15:59:50;92380.13;;;-3.35;100.00
71057;BME280;58380;48.312;9.246;2024-01-15T16:02:50;92409.09;;;-3.40;100.00
71057;BME280;58380;48.312;9.246;2024-01-15T16:05:51;92386.53;;;-3.64;100.00
71057;BME280;58380;48.312;9.246;2024-01-15T16:08:51;92406.78;;;-3.68;100.00
71057;BME280;58380;48.312;9.246;2024-01-15T16:11:51;92418.31;;;-3.77;100.00
71057;BME280;58380;48.312;9.246;2024-01-15T16:14:52;92423.47;;;-3.84;100.00
71057;BME280;58380;48.312;9.246;2024-01-15T16:17:52;92426.66;;;-3.95;100.00
71057;BME280;58380;48.312;9.246;2024-01-15T16:20:53;92428.03;;;-3.93;100.00
71057;BME280;58380;48.312;9.246;2024-01-15T16:23:53;92433.78;;;-3.97;100.00
71057;BME280;58380;48.312;9.246;2024-01-15T16:26:54;92423.50;;;-4.04;100.00
71057;BME280;58380;48.312;9.246;2024-01-15T16:29:54;92446.06;;;-3.93;100.00
71057;BME280;58380;48.312;9.246;2024-01-15T16:32:55;92426.03;;;-3.97;100.00
71057;BME280;58380;48.312;9.246;2024-01-15T16:35:55;92437.38;;;-3.92;100.00
71057;BME280;58380;48.312;9.246;2024-01-15T16:38:57;92447.88;;;-3.93;100.00
71057;BME280;58380;48.312;9.246;2024-01-15T16:41:57;92467.69;;;-4.00;100.00
71057;BME280;58380;48.312;9.246;2024-01-15T16:44:58;92478.41;;;-3.97;100.00
71057;BME280;58380;48.312;9.246;2024-01-15T16:47:58;92484.13;;;-4.08;100.00
71057;BME280;58380;48.312;9.246;2024-01-15T16:50:58;92441.69;;;-4.39;100.00
71057;BME280;58380;48.312;9.246;2024-01-15T16:54:00;92443.28;;;-4.31;100.00
71057;BME280;58380;48.312;9.246;2024-01-15T16:57:01;92442.88;;;-4.35;100.00
71057;BME280;58380;48.312;9.246;2024-01-15T17:00:01;92463.31;;;-4.33;100.00
71057;BME280;58380;48.312;9.246;2024-01-15T17:03:02;92506.13;;;-4.12;100.00
71057;BME280;58380;48.312;9.246;2024-01-15T17:06:03;92479.75;;;-4.27;100.00
71057;BME280;58380;48.312;9.246;2024-01-15T17:09:05;92486.09;;;-4.23;100.00
71057;BME280;58380;48.312;9.246;2024-01-15T17:12:07;92505.53;;;-4.07;100.00
71057;BME280;58380;48.312;9.246;2024-01-15T17:15:08;92501.56;;;-4.23;100.00
71057;BME280;58380;48.312;9.246;2024-01-15T17:18:08;92498.00;;;-4.29;100.00
71057;BME280;58380;48.312;9.246;2024-01-15T17:21:09;92501.53;;;-4.30;100.00
71057;BME280;58380;48.312;9.246;2024-01-15T17:24:09;92518.41;;;-4.27;100.00
71057;BME280;58380;48.312;9.246;2024-01-15T17:27:10;92529.69;;;-4.28;100.00
71057;BME280;58380;48.312;9.246;2024-01-15T17:30:10;92536.06;;;-4.18;100.00
71057;BME280;58380;48.312;9.246;2024-01-15T17:33:11;92499.75;;;-4.36;100.00
71057;BME280;58380;48.312;9.246;2024-01-15T17:36:12;92516.25;;;-4.24;100.00
71057;BME280;58380;48.312;9.246;2024-01-15T17:39:13;92538.03;;;-4.20;100.00
71057;BME280;58380;48.312;9.246;2024-01-15T17:42:14;92545.00;;;-4.14;100.00
71057;BME280;58380;48.312;9.246;2024-01-15T17:45:16;92550.53;;;-4.10;100.00
71057;BME280;58380;48.312;9.246;2024-01-15T17:48:18;92526.53;;;-4.17;100.00
71057;BME280;58380;48.312;9.246;2024-01-15T17:51:19;92562.47;;;-4.09;100.00
71057;BME280;58380;48.312;9.246;2024-01-15T17:54:19;92529.09;;;-4.30;100.00
71057;BME280;58380;48.312;9.246;2024-01-15T17:57:19;92551.13;;;-4.21;100.00
71057;BME280;58380;48.312;9.246;2024-01-15T18:00:20;92548.72;;;-4.23;100.00
71057;BME280;58380;48.312;9.246;2024-01-15T18:03:20;92567.97;;;-4.19;99.75
71057;BME280;58380;48.312;9.246;2024-01-15T18:06:21;92589.78;;;-4.15;99.67
71057;BME280;58380;48.312;9.246;2024-01-15T18:09:21;92555.06;;;-4.25;100.00
71057;BME280;58380;48.312;9.246;2024-01-15T18:12:23;92585.63;;;-4.16;100.00
71057;BME280;58380;48.312;9.246;2024-01-15T18:15:24;92598.69;;;-4.17;100.00
71057;BME280;58380;48.312;9.246;2024-01-15T18:18:24;92587.16;;;-4.28;100.00
71057;BME280;58380;48.312;9.246;2024-01-15T18:21:25;92592.72;;;-4.31;100.00
71057;BME280;58380;48.312;9.246;2024-01-15T18:24:26;92590.88;;;-4.37;100.00
71057;BME280;58380;48.312;9.246;2024-01-15T18:27:27;92616.69;;;-4.30;100.00
71057;BME280;58380;48.312;9.246;2024-01-15T18:30:28;92619.03;;;-4.36;100.00
71057;BME280;58380;48.312;9.246;2024-01-15T18:33:28;92619.03;;;-4.36;100.00
71057;BME280;58380;48.312;9.246;2024-01-15T18:36:29;92619.03;;;-4.36;100.00
71057;BME280;58380;48.312;9.246;2024-01-15T18:39:29;92641.84;;;-4.32;100.00
71057;BME280;58380;48.312;9.246;2024-01-15T18:42:29;92639.47;;;-4.34;100.00
71057;BME280;58380;48.312;9.246;2024-01-15T18:45:30;92641.34;;;-4.49;100.00
71057;BME280;58380;48.312;9.246;2024-01-15T18:48:30;92645.34;;;-4.47;100.00
71057;BME280;58380;48.312;9.246;2024-01-15T18:51:31;92662.44;;;-4.39;100.00
71057;BME280;58380;48.312;9.246;2024-01-15T18:54:31;92662.41;;;-4.46;100.00
71057;BME280;58380;48.312;9.246;2024-01-15T18:57:31;92659.78;;;-4.52;100.00
71057;BME280;58380;48.312;9.246;2024-01-15T19:00:32;92676.84;;;-4.51;100.00
71057;BME280;58380;48.312;9.246;2024-01-15T19:03:32;92645.63;;;-4.70;100.00
71057;BME280;58380;48.312;9.246;2024-01-15T19:06:33;92677.81;;;-4.52;100.00
71057;BME280;58380;48.312;9.246;2024-01-15T19:09:33;92648.00;;;-4.68;99.35
71057;BME280;58380;48.312;9.246;2024-01-15T19:12:33;92645.59;;;-4.77;98.85
71057;BME280;58380;48.312;9.246;2024-01-15T19:15:34;92679.75;;;-4.61;97.99
71057;BME280;58380;48.312;9.246;2024-01-15T19:18:34;92685.84;;;-4.62;97.31
71057;BME280;58380;48.312;9.246;2024-01-15T19:21:35;92676.88;;;-4.73;95.64
71057;BME280;58380;48.312;9.246;2024-01-15T19:24:36;92693.34;;;-4.67;95.33
71057;BME280;58380;48.312;9.246;2024-01-15T19:27:38;92674.25;;;-4.80;94.40
71057;BME280;58380;48.312;9.246;2024-01-15T19:30:43;92684.38;;;-4.78;95.07
71057;BME280;58380;48.312;9.246;2024-01-15T19:33:43;92692.50;;;-4.74;95.64
71057;BME280;58380;48.312;9.246;2024-01-15T19:36:44;92679.78;;;-4.83;95.45
71057;BME280;58380;48.312;9.246;2024-01-15T19:39:44;92709.00;;;-4.69;93.50
71057;BME280;58380;48.312;9.246;2024-01-15T19:42:45;92716.84;;;-4.77;95.20
71057;BME280;58380;48.312;9.246;2024-01-15T19:45:45;92724.22;;;-4.74;94.35
71057;BME280;58380;48.312;9.246;2024-01-15T19:48:45;92720.03;;;-4.75;94.55
71057;BME280;58380;48.312;9.246;2024-01-15T19:51:46;92721.88;;;-4.69;94.53
71057;BME280;58380;48.312;9.246;2024-01-15T19:54:46;92722.47;;;-4.67;94.05
71057;BME280;58380;48.312;9.246;2024-01-15T19:57:49;92719.31;;;-4.69;94.87
71057;BME280;58380;48.312;9.246;2024-01-15T20:00:50;92715.69;;;-4.74;95.05
71057;BME280;58380;48.312;9.246;2024-01-15T20:03:50;92743.91;;;-4.60;96.08
71057;BME280;58380;48.312;9.246;2024-01-15T20:06:50;92729.59;;;-4.69;96.31
71057;BME280;58380;48.312;9.246;2024-01-15T20:09:51;92745.69;;;-4.60;96.63
71057;BME280;58380;48.312;9.246;2024-01-15T20:12:51;92752.81;;;-4.62;97.55
71057;BME280;58380;48.312;9.246;2024-01-15T20:15:52;92738.50;;;-4.71;97.42
71057;BME280;58380;48.312;9.246;2024-01-15T20:18:52;92712.63;;;-4.91;97.98
71057;BME280;58380;48.312;9.246;2024-01-15T20:21:52;92750.63;;;-4.65;98.39
71057;BME280;58380;48.312;9.246;2024-01-15T20:24:53;92751.41;;;-4.65;98.13
71057;BME280;58380;48.312;9.246;2024-01-15T20:27:53;92742.66;;;-4.70;96.94
71057;BME280;58380;48.312;9.246;2024-01-15T20:30:53;92750.78;;;-4.67;97.23
71057;BME280;58380;48.312;9.246;2024-01-15T20:33:54;92757.09;;;-4.69;96.67
71057;BME280;58380;48.312;9.246;2024-01-15T20:36:54;92763.94;;;-4.62;97.16
71057;BME280;58380;48.312;9.246;2024-01-15T20:39:55;92769.31;;;-4.57;96.10
71057;BME280;58380;48.312;9.246;2024-01-15T20:42:55;92762.94;;;-4.61;95.69
71057;BME280;58380;48.312;9.246;2024-01-15T20:45:55;92770.28;;;-4.58;96.58
71057;BME280;58380;48.312;9.246;2024-01-15T20:48:56;92751.38;;;-4.71;96.85
71057;BME280;58380;48.312;9.246;2024-01-15T20:51:56;92760.50;;;-4.69;96.93
71057;BME280;58380;48.312;9.246;2024-01-15T20:54:57;92758.50;;;-4.67;95.86
71057;BME280;58380;48.312;9.246;2024-01-15T20:57:58;92758.09;;;-4.70;94.89
71057;BME280;58380;48.312;9.246;2024-01-15T21:00:58;92717.88;;;-5.00;95.78
71057;BME280;58380;48.312;9.246;2024-01-15T21:03:59;92770.22;;;-4.64;96.03
71057;BME280;58380;48.312;9.246;2024-01-15T21:07:00;92766.06;;;-4.65;94.92
71057;BME280;58380;48.312;9.246;2024-01-15T21:10:00;92768.03;;;-4.67;94.05
71057;BME280;58380;48.312;9.246;2024-01-15T21:13:01;92756.22;;;-4.62;94.35
71057;BME280;58380;48.312;9.246;2024-01-15T21:16:01;92742.38;;;-4.82;94.04
71057;BME280;58380;48.312;9.246;2024-01-15T21:19:02;92762.50;;;-4.64;92.73
71057;BME280;58380;48.312;9.246;2024-01-15T21:22:11;92736.19;;;-4.88;92.54
71057;BME280;58380;48.312;9.246;2024-01-15T21:25:11;92735.56;;;-4.90;92.70
71057;BME280;58380;48.312;9.246;2024-01-15T21:28:12;92743.72;;;-4.86;90.87
71057;BME280;58380;48.312;9.246;2024-01-15T21:31:12;92769.81;;;-4.68;92.31
71057;BME280;58380;48.312;9.246;2024-01-15T21:34:13;92768.78;;;-4.73;92.56
71057;BME280;58380;48.312;9.246;2024-01-15T21:37:15;92765.84;;;-4.70;92.27
71057;BME280;58380;48.312;9.246;2024-01-15T21:40:16;92707.16;;;-5.03;91.97
71057;BME280;58380;48.312;9.246;2024-01-15T21:43:16;92777.34;;;-4.66;91.73
71057;BME280;58380;48.312;9.246;2024-01-15T21:46:17;92783.53;;;-4.61;90.55
71057;BME280;58380;48.312;9.246;2024-01-15T21:49:17;92757.25;;;-4.78;91.19
71057;BME280;58380;48.312;9.246;2024-01-15T21:52:18;92784.31;;;-4.60;91.61
